Time;durP1;ratioP1;P1;durP2;ratioP2;P2;SDS_P1;SDS_P2;PMS_P1;PMS_P2;Temp;Humidity;BMP_temperature;BMP_pressure;BME280_temperature;BME280_humidity;BME280_pressure;Samples;Min_cycle;Max_cycle;Signal;HPM_P1;HPM_P2
2021/03/20 00:00:54;;;;;;;11.80;4.50;;;;;;;1.80;100.00;98857.91;4981600;28;20592;-72
2021/03/20 00:03:21;;;;;;;7.20;4.40;;;;;;;1.78;100.00;98854.56;4991452;28;20582;-72
2021/03/20 00:05:48;;;;;;;9.87;4.60;;;;;;;1.92;100.00;98846.38;4979964;28;20315;-72
2021/03/20 00:08:17;;;;;;;8.07;4.40;;;;;;;1.91;100.00;98854.38;4992378;28;20694;-71
2021/03/20 00:10:45;;;;;;;8.50;4.03;;;;;;;1.82;100.00;98861.25;4994516;28;20299;-71
2021/03/20 00:13:13;;;;;;;9.17;4.60;;;;;;;1.60;100.00;98857.84;4993586;28;20263;-71
2021/03/20 00:15:40;;;;;;;8.50;4.30;;;;;;;1.69;100.00;98857.94;4986601;28;20220;-71
2021/03/20 00:18:08;;;;;;;11.40;4.87;;;;;;;1.62;100.00;98858.56;4993961;28;20214;-72
2021/03/20 00:20:37;;;;;;;10.03;4.87;;;;;;;1.69;100.00;98860.56;4993004;28;20242;-71
2021/03/20 00:23:05;;;;;;;7.73;4.67;;;;;;;1.66;100.00;98863.47;4993840;28;20660;-71
2021/03/20 00:25:32;;;;;;;8.90;4.57;;;;;;;1.64;100.00;98865.38;4990042;28;20285;-72
2021/03/20 00:28:00;;;;;;;7.60;4.17;;;;;;;1.61;100.00;98857.75;4987443;28;20212;-71
2021/03/20 00:30:27;;;;;;;7.70;4.13;;;;;;;1.88;100.00;98855.47;4992273;28;20200;-71
2021/03/20 00:32:54;;;;;;;13.07;4.60;;;;;;;1.75;100.00;98859.25;4993279;28;20675;-71
2021/03/20 00:35:23;;;;;;;7.47;4.37;;;;;;;1.54;100.00;98851.28;4992625;28;20223;-72
2021/03/20 00:37:51;;;;;;;7.23;3.97;;;;;;;1.77;100.00;98847.63;4986697;28;20204;-72
2021/03/20 00:40:21;;;;;;;7.40;4.20;;;;;;;1.81;100.00;98850.84;4982578;28;20228;-71
2021/03/20 00:42:48;;;;;;;6.73;3.87;;;;;;;1.67;100.00;98859.88;4988984;28;20609;-71
2021/03/20 00:45:17;;;;;;;11.00;4.03;;;;;;;1.74;100.00;98855.75;4990157;28;20231;-71
2021/03/20 00:47:44;;;;;;;9.10;4.60;;;;;;;2.01;100.00;98861.41;4990943;28;20203;-71
2021/03/20 00:50:13;;;;;;;10.30;4.20;;;;;;;2.02;100.00;98855.16;4993409;28;20291;-72
2021/03/20 00:52:40;;;;;;;7.87;4.03;;;;;;;1.89;100.00;98854.50;4992586;28;20258;-72
2021/03/20 00:55:08;;;;;;;8.40;4.50;;;;;;;2.09;100.00;98853.69;4992753;28;20231;-72
2021/03/20 00:57:35;;;;;;;7.80;4.03;;;;;;;2.09;100.00;98860.78;4992461;28;20252;-71
2021/03/20 01:00:03;;;;;;;7.67;4.33;;;;;;;2.15;100.00;98862.88;4993433;28;20210;-71
2021/03/20 01:02:30;;;;;;;8.83;3.80;;;;;;;2.17;100.00;98858.31;4992992;28;20210;-71
2021/03/20 01:04:57;;;;;;;8.90;4.13;;;;;;;2.33;100.00;98864.81;4991091;28;20223;-71
2021/03/20 01:07:24;;;;;;;8.43;3.97;;;;;;;2.47;100.00;98861.00;4991641;28;20672;-71
2021/03/20 01:09:51;;;;;;;11.53;4.53;;;;;;;2.20;100.00;98861.53;4991996;28;20203;-72
2021/03/20 01:12:18;;;;;;;8.50;4.30;;;;;;;2.12;100.00;98860.50;4984271;28;20204;-71
2021/03/20 01:14:45;;;;;;;7.03;4.03;;;;;;;2.50;100.00;98864.22;4985848;28;20234;-71
2021/03/20 01:17:12;;;;;;;7.73;4.23;;;;;;;2.28;100.00;98863.50;4983262;28;20207;-71
2021/03/20 01:19:38;;;;;;;8.03;4.37;;;;;;;2.40;100.00;98854.59;4989676;28;20214;-73
2021/03/20 01:22:05;;;;;;;13.97;4.63;;;;;;;2.50;100.00;98852.88;4980464;28;20231;-72
2021/03/20 01:24:32;;;;;;;7.60;4.63;;;;;;;2.47;100.00;98861.00;4988042;28;20326;-72
2021/03/20 01:27:00;;;;;;;8.47;4.50;;;;;;;2.50;100.00;98860.75;4988711;28;20212;-71
2021/03/20 01:29:26;;;;;;;5.53;3.40;;;;;;;2.59;100.00;98860.81;4992495;28;20214;-71
2021/03/20 01:31:54;;;;;;;7.47;4.27;;;;;;;2.61;100.00;98855.41;4991509;28;20668;-71
2021/03/20 01:34:20;;;;;;;5.80;3.90;;;;;;;2.54;100.00;98862.19;4991544;28;20258;-72
2021/03/20 01:36:47;;;;;;;9.07;4.40;;;;;;;3.00;100.00;98857.25;4992255;28;20585;-72
2021/03/20 01:39:14;;;;;;;7.00;4.03;;;;;;;3.03;100.00;98859.63;4990835;28;20215;-71
2021/03/20 01:41:42;;;;;;;8.00;4.37;;;;;;;3.12;100.00;98866.72;4987824;28;20569;-71
2021/03/20 01:44:15;;;;;;;7.00;4.20;;;;;;;3.03;100.00;98868.38;4989065;28;20622;-72
2021/03/20 01:46:48;;;;;;;6.57;3.70;;;;;;;3.12;100.00;98864.94;4985390;28;20226;-72
2021/03/20 01:49:22;;;;;;;9.47;4.50;;;;;;;3.28;100.00;98862.63;4991995;28;20557;-71
2021/03/20 01:51:58;;;;;;;8.07;4.10;;;;;;;2.67;100.00;98865.41;4990563;28;20211;-72
2021/03/20 01:54:28;;;;;;;8.37;4.60;;;;;;;3.24;100.00;98863.84;4991065;28;20203;-71
2021/03/20 01:56:55;;;;;;;10.40;4.03;;;;;;;3.29;100.00;98874.84;4979020;28;20233;-71
2021/03/20 01:59:23;;;;;;;7.93;3.80;;;;;;;3.24;100.00;98878.84;4997924;28;20607;-72
2021/03/20 02:01:50;;;;;;;7.00;3.90;;;;;;;3.29;100.00;98874.84;5000136;28;20640;-72
2021/03/20 02:04:17;;;;;;;6.53;3.83;;;;;;;3.39;100.00;98870.44;4998332;28;20199;-72
2021/03/20 02:06:43;;;;;;;7.33;3.90;;;;;;;3.37;100.00;98864.47;4977885;28;20263;-72
2021/03/20 02:09:11;;;;;;;7.77;4.10;;;;;;;3.28;100.00;98869.69;4990849;28;20203;-72
2021/03/20 02:11:44;;;;;;;7.70;4.00;;;;;;;3.23;100.00;98864.84;4985064;28;20192;-72
2021/03/20 02:14:23;;;;;;;8.97;4.13;;;;;;;3.17;100.00;98862.75;4992252;28;20218;-72
2021/03/20 02:16:56;;;;;;;8.77;3.93;;;;;;;3.24;100.00;98874.41;4982644;28;20202;-72
2021/03/20 02:19:44;;;;;;;9.97;4.20;;;;;;;3.37;100.00;98867.09;4989729;28;20210;-72
2021/03/20 02:22:16;;;;;;;6.63;3.87;;;;;;;3.37;100.00;98859.19;4985949;28;20250;-71
2021/03/20 02:25:10;;;;;;;7.20;4.40;;;;;;;3.33;100.00;98863.06;4981023;28;20238;-71
2021/03/20 02:28:04;;;;;;;8.87;4.30;;;;;;;3.13;100.00;98866.59;4991197;28;20210;-71
2021/03/20 02:31:16;;;;;;;7.70;4.27;;;;;;;2.98;100.00;98875.84;4991813;28;20583;-72
2021/03/20 02:33:51;;;;;;;6.83;4.00;;;;;;;3.29;100.00;98876.63;4971121;28;20622;-71
2021/03/20 02:36:24;;;;;;;10.53;4.10;;;;;;;3.15;100.00;98867.28;4982530;28;20251;-71
2021/03/20 02:38:53;;;;;;;8.73;3.77;;;;;;;3.07;100.00;98871.56;4991592;28;20214;-71
2021/03/20 02:41:26;;;;;;;5.20;3.47;;;;;;;3.01;100.00;98869.47;4989435;28;20232;-71
2021/03/20 02:43:58;;;;;;;6.93;4.20;;;;;;;3.36;100.00;98859.31;4993389;28;20203;-71
2021/03/20 02:46:28;;;;;;;8.97;4.20;;;;;;;3.09;100.00;98862.56;4993899;28;20227;-72
2021/03/20 02:49:02;;;;;;;6.60;3.90;;;;;;;3.35;100.00;98857.66;4994115;28;20208;-72
2021/03/20 02:51:33;;;;;;;9.80;4.57;;;;;;;3.44;100.00;98855.03;4994682;28;20214;-71
2021/03/20 02:54:02;;;;;;;8.47;4.20;;;;;;;3.28;100.00;98852.06;4989813;28;20581;-71
2021/03/20 02:56:34;;;;;;;9.83;3.80;;;;;;;3.25;100.00;98854.16;4995106;28;20246;-72
2021/03/20 02:59:05;;;;;;;9.27;4.13;;;;;;;3.26;100.00;98843.44;4995971;28;20615;-72
2021/03/20 03:01:33;;;;;;;7.73;4.33;;;;;;;3.40;100.00;98855.44;4994518;28;20224;-72
2021/03/20 03:04:01;;;;;;;7.90;3.80;;;;;;;3.58;100.00;98848.50;4994696;28;20203;-71
2021/03/20 03:06:31;;;;;;;9.07;4.67;;;;;;;3.18;100.00;98859.13;4994686;28;20231;-71
2021/03/20 03:09:01;;;;;;;9.13;5.03;;;;;;;3.38;100.00;98854.72;4995668;28;20204;-71
2021/03/20 03:11:32;;;;;;;7.83;4.33;;;;;;;3.23;100.00;98856.91;4994257;28;20298;-71
2021/03/20 03:14:03;;;;;;;6.83;3.90;;;;;;;3.20;100.00;98853.72;4995621;28;20207;-71
2021/03/20 03:16:35;;;;;;;9.53;4.23;;;;;;;3.48;100.00;98851.16;4993840;28;20234;-71
2021/03/20 03:19:07;;;;;;;7.90;3.87;;;;;;;3.29;100.00;98848.47;4995888;28;20238;-71
2021/03/20 03:21:39;;;;;;;6.67;3.90;;;;;;;3.54;100.00;98849.75;4994475;28;20228;-71
2021/03/20 03:24:07;;;;;;;6.33;4.00;;;;;;;3.10;100.00;98856.31;4995197;28;20266;-72
2021/03/20 03:26:38;;;;;;;7.93;4.37;;;;;;;2.99;100.00;98861.69;4994535;28;20212;-71
2021/03/20 03:29:08;;;;;;;7.00;4.33;;;;;;;3.05;100.00;98861.16;4993313;28;20258;-71
2021/03/20 03:31:38;;;;;;;12.53;4.43;;;;;;;3.32;100.00;98845.56;4993365;28;20223;-71
2021/03/20 03:34:08;;;;;;;9.10;4.03;;;;;;;3.42;100.00;98858.78;4987608;28;20215;-71
2021/03/20 03:36:41;;;;;;;8.80;4.50;;;;;;;3.47;100.00;98862.69;4989055;28;20223;-71
2021/03/20 03:39:12;;;;;;;9.97;4.53;;;;;;;3.42;100.00;98883.34;4984480;28;20214;-71
2021/03/20 03:41:40;;;;;;;8.30;4.97;;;;;;;2.82;100.00;98888.69;4989415;28;20234;-71
2021/03/20 03:44:08;;;;;;;8.03;4.43;;;;;;;2.80;100.00;98895.88;4992431;28;20203;-71
2021/03/20 03:46:38;;;;;;;9.83;5.53;;;;;;;2.79;100.00;98894.19;4993438;28;20211;-71
2021/03/20 03:49:08;;;;;;;7.27;4.27;;;;;;;3.39;100.00;98888.88;4989786;28;20216;-71
2021/03/20 03:51:36;;;;;;;7.37;4.63;;;;;;;3.32;100.00;98893.06;4993955;28;20211;-72
2021/03/20 03:54:03;;;;;;;9.30;4.87;;;;;;;3.09;100.00;98894.19;4994022;28;20207;-71
2021/03/20 03:56:44;;;;;;;10.30;4.90;;;;;;;2.90;100.00;98891.47;4993554;28;20777;-71
2021/03/20 03:59:15;;;;;;;9.27;4.77;;;;;;;2.75;100.00;98899.88;4994073;28;20211;-72
2021/03/20 04:01:47;;;;;;;8.60;4.77;;;;;;;2.85;100.00;98895.50;4987365;28;20847;-72
2021/03/20 04:04:24;;;;;;;9.20;5.17;;;;;;;3.08;100.00;98892.53;4994834;28;20207;-71
2021/03/20 04:07:14;;;;;;;9.80;4.43;;;;;;;3.12;100.00;98890.47;4994843;28;20683;-72
2021/03/20 04:09:47;;;;;;;8.70;4.60;;;;;;;3.26;100.00;98890.91;4975894;28;20208;-71
2021/03/20 04:12:21;;;;;;;6.90;4.40;;;;;;;2.94;100.00;98897.31;4985278;28;20207;-71
2021/03/20 04:14:57;;;;;;;8.23;4.87;;;;;;;3.07;100.00;98888.25;4988568;28;20238;-71
2021/03/20 04:17:40;;;;;;;8.57;4.70;;;;;;;3.06;100.00;98910.28;4991946;28;20211;-72
2021/03/20 04:20:16;;;;;;;7.70;4.50;;;;;;;2.79;100.00;98896.84;4978190;28;20633;-71
2021/03/20 04:22:47;;;;;;;8.47;5.00;;;;;;;3.22;100.00;98886.91;4987364;28;20204;-72
2021/03/20 04:25:20;;;;;;;7.53;4.77;;;;;;;3.30;100.00;98871.22;4985495;28;20285;-69
2021/03/20 04:27:50;;;;;;;6.47;4.03;;;;;;;3.17;100.00;98886.47;4991039;28;20262;-69
2021/03/20 04:30:23;;;;;;;8.57;4.43;;;;;;;3.38;100.00;98887.22;4991226;28;20223;-69
2021/03/20 04:32:52;;;;;;;6.90;4.70;;;;;;;3.12;100.00;98887.81;4993208;28;20212;-69
2021/03/20 04:35:24;;;;;;;10.10;4.60;;;;;;;3.16;100.00;98890.06;4992025;28;20235;-69
2021/03/20 04:37:53;;;;;;;10.47;4.83;;;;;;;3.23;100.00;98890.34;4987641;28;20200;-70
2021/03/20 04:40:29;;;;;;;9.83;5.50;;;;;;;2.96;100.00;98896.22;4990239;28;20223;-72
2021/03/20 04:42:56;;;;;;;8.33;4.60;;;;;;;2.95;100.00;98914.81;4992153;28;20618;-69
2021/03/20 04:45:30;;;;;;;8.63;4.43;;;;;;;2.93;100.00;98922.00;4991042;28;20286;-69
2021/03/20 04:48:00;;;;;;;10.63;5.00;;;;;;;2.82;100.00;98919.47;4985998;28;20204;-71
2021/03/20 04:50:29;;;;;;;8.93;4.83;;;;;;;3.01;100.00;98930.13;4992572;28;20214;-69
2021/03/20 04:52:57;;;;;;;9.00;5.17;;;;;;;2.95;100.00;98926.19;4993194;28;20314;-69
2021/03/20 04:55:25;;;;;;;8.70;4.80;;;;;;;2.94;100.00;98928.94;4989246;28;20228;-69
2021/03/20 04:57:54;;;;;;;8.03;4.77;;;;;;;2.93;100.00;98927.28;4985519;28;20206;-71
2021/03/20 05:00:27;;;;;;;6.83;4.13;;;;;;;2.63;100.00;98932.50;5003892;28;20229;-72
2021/03/20 05:02:58;;;;;;;8.57;5.40;;;;;;;2.79;100.00;98917.91;4984020;28;20203;-72
2021/03/20 05:05:31;;;;;;;10.77;4.80;;;;;;;2.66;100.00;98922.56;4991810;28;20249;-72
2021/03/20 05:08:01;;;;;;;8.27;4.70;;;;;;;2.46;100.00;98919.94;4993213;28;20265;-70
2021/03/20 05:10:33;;;;;;;9.43;4.47;;;;;;;2.65;100.00;98918.25;4976506;28;20204;-72
2021/03/20 05:13:02;;;;;;;12.23;5.60;;;;;;;2.38;100.00;98917.94;4990298;28;20207;-73
2021/03/20 05:15:30;;;;;;;8.23;5.00;;;;;;;2.38;100.00;98923.19;4992628;28;20315;-72
2021/03/20 05:17:57;;;;;;;9.30;5.20;;;;;;;2.39;100.00;98918.78;4988632;28;20207;-71
2021/03/20 05:20:24;;;;;;;9.23;5.07;;;;;;;2.31;100.00;98924.69;4992446;28;20199;-70
2021/03/20 05:22:52;;;;;;;7.50;4.93;;;;;;;2.35;100.00;98923.44;4993002;28;20203;-69
2021/03/20 05:25:22;;;;;;;8.47;4.67;;;;;;;2.10;100.00;98925.63;5015735;23;20642;-70
2021/03/20 05:27:49;;;;;;;7.47;4.83;;;;;;;2.26;100.00;98923.38;4976608;28;20192;-72
2021/03/20 05:30:17;;;;;;;9.30;4.70;;;;;;;2.31;100.00;98923.84;4985193;28;20208;-72
2021/03/20 05:32:44;;;;;;;8.27;5.33;;;;;;;2.14;100.00;98929.69;4981020;28;20250;-71
2021/03/20 05:35:18;;;;;;;9.10;5.13;;;;;;;2.28;100.00;98930.19;4981831;28;20665;-72
2021/03/20 05:37:45;;;;;;;7.73;5.20;;;;;;;2.21;100.00;98930.84;4991369;28;20756;-72
2021/03/20 05:40:22;;;;;;;10.03;4.80;;;;;;;2.28;100.00;98940.72;4993006;28;20203;-72
2021/03/20 05:43:21;;;;;;;7.53;5.13;;;;;;;2.16;100.00;98939.13;4987978;28;20727;-69
2021/03/20 05:45:56;;;;;;;8.30;5.40;;;;;;;2.13;100.00;98938.53;4971259;28;20262;-70
2021/03/20 05:48:27;;;;;;;10.03;5.50;;;;;;;1.79;100.00;98935.16;4990170;28;20210;-70
2021/03/20 05:51:09;;;;;;;14.57;6.23;;;;;;;2.21;100.00;98934.31;4984790;28;20204;-70
2021/03/20 05:53:49;;;;;;;12.10;5.30;;;;;;;2.42;100.00;98942.22;4980931;28;20343;-70
2021/03/20 05:56:23;;;;;;;9.33;5.17;;;;;;;2.31;100.00;98943.13;4978141;28;20721;-70
2021/03/20 05:59:08;;;;;;;9.97;5.23;;;;;;;2.24;100.00;98946.38;4981329;28;20295;-70
2021/03/20 06:01:49;;;;;;;8.67;5.13;;;;;;;2.51;100.00;98946.72;4983220;28;20372;-74
2021/03/20 06:04:34;;;;;;;8.17;5.17;;;;;;;2.15;100.00;98955.03;4972804;28;20204;-70
2021/03/20 06:07:36;;;;;;;11.63;5.03;;;;;;;2.29;100.00;98955.56;4984851;28;20224;-73
2021/03/20 06:10:15;;;;;;;10.33;5.13;;;;;;;2.20;100.00;98960.75;4988046;28;20195;-72
2021/03/20 06:12:50;;;;;;;10.30;5.10;;;;;;;2.29;100.00;98973.19;4980698;28;20212;-72
2021/03/20 06:15:25;;;;;;;9.57;5.13;;;;;;;2.28;100.00;98977.59;4973261;28;20208;-72
2021/03/20 06:18:06;;;;;;;9.13;5.40;;;;;;;2.76;100.00;98963.00;4982295;28;20298;-72
2021/03/20 06:20:39;;;;;;;10.60;4.90;;;;;;;2.75;100.00;98969.22;4991627;28;20198;-72
2021/03/20 06:23:28;;;;;;;8.50;5.37;;;;;;;2.64;100.00;98971.91;4987913;28;20619;-70
2021/03/20 06:26:01;;;;;;;7.80;4.93;;;;;;;2.13;100.00;98970.94;4988622;28;20232;-69
2021/03/20 06:28:33;;;;;;;9.20;4.90;;;;;;;2.65;100.00;98970.13;4991824;28;20234;-70
2021/03/20 06:31:06;;;;;;;9.20;5.13;;;;;;;2.97;100.00;98973.50;4991780;28;20676;-71
2021/03/20 06:33:38;;;;;;;10.70;5.30;;;;;;;2.77;100.00;98980.47;4979897;28;20203;-71
2021/03/20 06:36:07;;;;;;;7.73;4.63;;;;;;;2.57;100.00;98983.94;4989836;28;21162;-70
2021/03/20 06:38:40;;;;;;;8.23;4.83;;;;;;;2.79;100.00;98983.00;4988084;28;20207;-70
2021/03/20 06:41:14;;;;;;;9.23;4.37;;;;;;;2.90;100.00;98990.84;4982768;28;20212;-72
2021/03/20 06:43:50;;;;;;;7.40;4.63;;;;;;;3.00;100.00;99005.72;4986554;28;20218;-74
2021/03/20 06:46:19;;;;;;;11.20;4.00;;;;;;;2.21;100.00;99009.81;4979642;28;20251;-71
2021/03/20 06:48:47;;;;;;;8.37;3.83;;;;;;;2.51;100.00;99010.81;4987870;28;20200;-74
2021/03/20 06:51:14;;;;;;;7.00;4.13;;;;;;;2.26;100.00;99010.28;4990076;28;20207;-74
2021/03/20 06:53:45;;;;;;;6.47;3.60;;;;;;;2.47;100.00;99000.63;4988321;28;20616;-74
2021/03/20 06:56:14;;;;;;;6.47;3.90;;;;;;;2.42;100.00;99008.06;4987043;28;20286;-74
2021/03/20 06:58:42;;;;;;;6.73;3.43;;;;;;;2.84;100.00;99015.06;4992025;28;20805;-71
2021/03/20 07:01:35;;;;;;;10.73;3.83;;;;;;;2.63;100.00;99015.03;4987516;28;20598;-74
2021/03/20 07:04:41;;;;;;;5.27;2.90;;;;;;;3.10;100.00;99022.44;4973785;28;20658;-71
2021/03/20 07:07:25;;;;;;;7.07;3.17;;;;;;;2.67;100.00;99024.38;4988059;28;20224;-70
2021/03/20 07:09:53;;;;;;;4.30;2.57;;;;;;;2.89;100.00;99041.88;4985575;28;20236;-71
2021/03/20 07:12:22;;;;;;;4.23;2.73;;;;;;;2.92;98.20;99029.28;4991797;28;20200;-72
2021/03/20 07:14:53;;;;;;;4.07;2.83;;;;;;;2.39;98.66;99022.31;4983765;28;20257;-70
2021/03/20 07:17:32;;;;;;;3.37;2.43;;;;;;;2.86;99.67;99021.88;4991515;28;20370;-70
2021/03/20 07:20:01;;;;;;;2.77;2.10;;;;;;;3.17;97.27;99026.25;4988259;28;20207;-70
2021/03/20 07:22:35;;;;;;;4.50;2.60;;;;;;;3.13;96.77;99030.09;4991813;28;20629;-71
2021/03/20 07:25:20;;;;;;;5.50;2.50;;;;;;;2.84;91.99;99044.06;4993532;28;20200;-74
2021/03/20 07:27:47;;;;;;;3.33;2.27;;;;;;;3.21;90.17;99046.09;4990460;28;20258;-75
2021/03/20 07:30:33;;;;;;;4.20;2.77;;;;;;;3.28;90.70;99038.50;4985930;28;20238;-72
2021/03/20 07:33:00;;;;;;;6.63;2.47;;;;;;;2.47;93.38;99038.34;4990766;28;20195;-71
2021/03/20 07:35:33;;;;;;;2.87;2.20;;;;;;;3.08;90.55;99042.00;4992011;28;20228;-72
2021/03/20 07:38:17;;;;;;;5.97;3.27;;;;;;;2.85;86.71;99049.19;4998194;28;20239;-83
2021/03/20 07:40:44;;;;;;;6.73;2.90;;;;;;;3.32;87.00;99053.13;4997544;28;20203;-75
2021/03/20 07:43:14;;;;;;;4.33;2.53;;;;;;;3.00;84.98;99055.81;5001887;28;20208;-77
2021/03/20 07:45:42;;;;;;;4.73;2.60;;;;;;;4.01;78.82;99050.50;4994180;28;20766;-78
2021/03/20 07:48:18;;;;;;;3.67;2.57;;;;;;;3.91;78.22;99062.00;4997190;28;20207;-74
2021/03/20 07:50:46;;;;;;;5.33;2.50;;;;;;;3.57;83.28;99058.81;4996556;28;20208;-74
2021/03/20 07:53:15;;;;;;;4.03;2.30;;;;;;;4.15;77.18;99057.19;4985416;28;20571;-72
2021/03/20 07:56:01;;;;;;;4.03;2.83;;;;;;;3.70;76.91;99048.84;4995480;28;20615;-71
2021/03/20 07:58:39;;;;;;;6.37;2.70;;;;;;;3.83;76.41;99060.03;4986858;28;20722;-75
2021/03/20 08:01:09;;;;;;;3.17;2.30;;;;;;;3.13;81.26;99059.13;4995197;28;20212;-72
2021/03/20 08:03:50;;;;;;;4.23;2.90;;;;;;;3.17;79.59;99076.34;4996934;28;20251;-72
2021/03/20 08:06:19;;;;;;;4.43;2.60;;;;;;;3.64;78.48;99078.44;4992158;28;20232;-72
2021/03/20 08:08:46;;;;;;;4.87;2.80;;;;;;;3.80;68.00;99104.31;4996791;28;20558;-75
2021/03/20 08:11:31;;;;;;;3.40;1.97;;;;;;;4.03;65.42;99117.25;4994774;28;20693;-72
2021/03/20 08:14:03;;;;;;;3.70;2.37;;;;;;;3.13;75.00;99108.38;4990459;28;20195;-72
2021/03/20 08:16:30;;;;;;;6.30;2.80;;;;;;;2.90;75.62;99112.91;4985201;28;20526;-74
2021/03/20 08:18:58;;;;;;;3.40;2.10;;;;;;;3.55;74.89;99108.25;4989713;28;20925;-71
2021/03/20 08:22:06;;;;;;;3.70;2.17;;;;;;;2.64;74.42;99103.66;4994527;28;20286;-69
2021/03/20 08:24:49;;;;;;;2.50;1.83;;;;;;;3.55;72.45;99105.59;4994248;28;20236;-78
2021/03/20 08:27:24;;;;;;;3.90;1.90;;;;;;;3.45;67.76;99112.63;4994319;28;20270;-70
2021/03/20 08:30:07;;;;;;;4.77;1.97;;;;;;;3.14;66.29;99096.84;4991864;28;20211;-74
2021/03/20 08:32:48;;;;;;;3.30;1.90;;;;;;;2.79;64.89;99102.41;4995412;28;20196;-68
2021/03/20 08:35:20;;;;;;;4.03;1.80;;;;;;;2.75;63.65;99116.81;4997632;28;20682;-69
2021/03/20 08:38:16;;;;;;;4.73;2.10;;;;;;;3.94;61.16;99120.66;4988301;28;20204;-70
2021/03/20 08:40:54;;;;;;;2.07;1.23;;;;;;;3.06;58.92;99138.88;4990552;28;20265;-69
2021/03/20 08:43:54;;;;;;;2.57;1.70;;;;;;;3.17;59.64;99141.44;4983602;28;20223;-71
2021/03/20 08:46:48;;;;;;;2.37;1.40;;;;;;;2.95;53.96;99163.47;4988201;28;20223;-68
2021/03/20 08:49:21;;;;;;;1.60;1.13;;;;;;;2.99;54.41;99164.03;4982913;28;20208;-74
2021/03/20 08:51:54;;;;;;;2.00;1.27;;;;;;;2.70;55.45;99158.50;4991804;28;20557;-68
2021/03/20 08:54:56;;;;;;;2.47;1.50;;;;;;;2.76;57.86;99160.69;4986160;28;20214;-71
2021/03/20 08:57:35;;;;;;;7.70;2.00;;;;;;;2.61;60.15;99158.44;4971816;28;20588;-68
2021/03/20 09:00:06;;;;;;;1.50;1.20;;;;;;;2.76;56.64;99170.38;4994128;28;20203;-68
2021/03/20 09:02:37;;;;;;;2.20;1.60;;;;;;;2.87;53.92;99176.44;4993902;28;20226;-70
2021/03/20 09:05:12;;;;;;;3.47;1.63;;;;;;;3.09;53.83;99180.78;4993793;28;20203;-71
2021/03/20 09:07:41;;;;;;;1.77;1.40;;;;;;;2.95;53.35;99166.09;4985615;28;20681;-73
2021/03/20 09:10:16;;;;;;;3.73;1.60;;;;;;;2.79;54.82;99165.69;4989929;28;20235;-70
2021/03/20 09:12:45;;;;;;;2.73;1.47;;;;;;;3.73;54.24;99169.19;4990035;28;20225;-75
2021/03/20 09:15:19;;;;;;;3.40;2.00;;;;;;;3.80;53.86;99173.81;4992934;28;20322;-71
2021/03/20 09:17:46;;;;;;;5.90;1.87;;;;;;;4.12;52.02;99174.53;4987167;28;20195;-72
2021/03/20 09:20:27;;;;;;;3.53;1.80;;;;;;;4.23;51.33;99163.91;4994245;28;20214;-73
2021/03/20 09:22:54;;;;;;;3.13;1.40;;;;;;;4.50;50.80;99176.47;4993517;28;20222;-76
2021/03/20 09:25:28;;;;;;;2.97;1.83;;;;;;;4.75;51.81;99181.28;4992786;28;20627;-72
2021/03/20 09:28:10;;;;;;;3.43;1.63;;;;;;;4.92;52.16;99175.34;4992912;28;20207;-73
2021/03/20 09:30:38;;;;;;;2.80;1.67;;;;;;;4.45;54.80;99166.31;4986524;28;20202;-74
2021/03/20 09:33:24;;;;;;;3.37;1.80;;;;;;;3.85;55.74;99176.06;4992768;28;20298;-73
2021/03/20 09:35:54;;;;;;;4.77;1.60;;;;;;;5.25;50.26;99175.78;4988260;28;20219;-68
2021/03/20 09:38:46;;;;;;;1.73;1.30;;;;;;;4.20;51.43;99184.44;4989865;28;20215;-72
2021/03/20 09:41:34;;;;;;;2.80;1.60;;;;;;;5.74;41.61;99206.53;4992470;28;20302;-68
2021/03/20 09:44:28;;;;;;;1.67;1.40;;;;;;;5.11;45.47;99188.56;4990336;28;20209;-70
2021/03/20 09:46:57;;;;;;;3.20;1.50;;;;;;;3.58;48.85;99183.69;4957741;28;20229;-77
2021/03/20 09:49:51;;;;;;;1.80;1.23;;;;;;;4.18;44.89;99189.03;4991077;28;20201;-71
2021/03/20 09:52:54;;;;;;;1.10;1.03;;;;;;;3.98;44.55;99196.03;4985402;28;20619;-71
2021/03/20 09:55:46;;;;;;;1.53;1.27;;;;;;;4.10;42.10;99199.41;4981472;28;20239;-71
2021/03/20 09:58:36;;;;;;;2.40;1.30;;;;;;;4.91;42.26;99181.59;4992063;28;20235;-72
2021/03/20 10:01:17;;;;;;;3.20;1.50;;;;;;;5.24;40.38;99200.56;4992526;28;20227;-71
2021/03/20 10:04:26;;;;;;;4.60;1.10;;;;;;;5.40;36.74;99216.75;4990095;28;20264;-70
2021/03/20 10:07:18;;;;;;;2.80;1.07;;;;;;;5.48;38.95;99202.81;4988918;28;20221;-74
2021/03/20 10:09:54;;;;;;;2.03;1.30;;;;;;;4.40;38.11;99212.63;5000774;28;20262;-70
2021/03/20 10:12:24;;;;;;;1.70;1.07;;;;;;;4.93;39.53;99193.69;5002464;28;20255;-71
2021/03/20 10:15:11;;;;;;;4.70;1.40;;;;;;;5.46;40.71;99184.41;5000873;28;20657;-72
2021/03/20 10:18:20;;;;;;;2.47;1.47;;;;;;;4.81;40.27;99184.22;4989805;28;20206;-74
2021/03/20 10:21:00;;;;;;;2.23;1.47;;;;;;;5.36;40.20;99180.94;4983795;28;20207;-70
2021/03/20 10:23:39;;;;;;;1.40;1.10;;;;;;;5.07;41.93;99166.84;4991521;28;20204;-72
2021/03/20 10:26:20;;;;;;;2.53;1.50;;;;;;;4.78;38.57;99181.03;4982605;28;20313;-70
2021/03/20 10:28:51;;;;;;;2.00;1.30;;;;;;;5.05;39.54;99181.19;4985844;28;20274;-74
2021/03/20 10:31:18;;;;;;;2.30;1.30;;;;;;;5.48;38.24;99181.63;4993371;28;20225;-72
2021/03/20 10:33:47;;;;;;;2.63;1.50;;;;;;;5.02;39.80;99178.84;4992371;28;20200;-77
2021/03/20 10:36:27;;;;;;;1.80;1.40;;;;;;;4.70;39.00;99192.28;4988571;28;20315;-72
2021/03/20 10:38:54;;;;;;;2.63;1.37;;;;;;;5.32;41.66;99170.75;4995809;28;20279;-71
2021/03/20 10:41:25;;;;;;;2.07;1.47;;;;;;;5.70;40.36;99186.63;4988482;28;20232;-70
2021/03/20 10:43:55;;;;;;;2.70;1.50;;;;;;;6.18;37.12;99195.31;4993702;28;20610;-70
2021/03/20 10:46:24;;;;;;;3.80;1.40;;;;;;;5.57;38.01;99205.44;4992820;28;20232;-70
2021/03/20 10:48:54;;;;;;;1.73;1.20;;;;;;;5.31;39.63;99187.59;4985724;28;20244;-71
2021/03/20 10:51:21;;;;;;;2.27;1.40;;;;;;;5.12;40.76;99180.50;4988347;28;20211;-72
2021/03/20 10:53:51;;;;;;;2.27;1.40;;;;;;;4.90;40.89;99186.06;4990950;28;20295;-69
2021/03/20 10:56:30;;;;;;;2.00;1.47;;;;;;;5.47;39.34;99179.94;4992408;28;20292;-70
2021/03/20 10:58:58;;;;;;;3.57;1.37;;;;;;;5.83;41.03;99172.13;4987946;28;20279;-74
2021/03/20 11:01:33;;;;;;;2.40;1.20;;;;;;;6.04;37.95;99180.69;4987974;28;20905;-75
2021/03/20 11:04:00;;;;;;;2.87;1.43;;;;;;;5.40;38.74;99179.69;4992039;28;20207;-72
2021/03/20 11:06:28;;;;;;;2.90;1.53;;;;;;;5.15;38.39;99177.59;4996738;28;20230;-74
2021/03/20 11:09:08;;;;;;;2.80;1.40;;;;;;;5.40;36.38;99186.78;5000921;28;20536;-71
2021/03/20 11:11:38;;;;;;;2.30;1.53;;;;;;;5.57;36.92;99189.56;4992803;28;20217;-71
2021/03/20 11:14:09;;;;;;;1.83;1.60;;;;;;;5.83;38.81;99169.47;4998260;28;20225;-70
2021/03/20 11:16:47;;;;;;;3.37;1.83;;;;;;;5.56;42.18;99160.56;4998244;28;20230;-74
2021/03/20 11:19:23;;;;;;;3.20;1.47;;;;;;;5.45;40.08;99173.97;4992658;28;20206;-76
2021/03/20 11:21:57;;;;;;;3.67;1.57;;;;;;;5.46;40.35;99172.97;4995207;28;20641;-80
2021/03/20 11:24:28;;;;;;;4.53;1.70;;;;;;;5.31;39.13;99175.22;4992396;28;20217;-77
2021/03/20 11:26:57;;;;;;;2.27;1.40;;;;;;;5.38;40.35;99178.16;4989671;28;20314;-79
2021/03/20 11:29:26;;;;;;;2.07;1.57;;;;;;;5.29;38.76;99192.22;4998109;28;20227;-79
2021/03/20 11:31:57;;;;;;;1.97;1.40;;;;;;;6.06;39.48;99173.47;4996421;28;20214;-76
2021/03/20 11:34:28;;;;;;;4.20;1.70;;;;;;;5.93;38.54;99180.88;4991768;28;20281;-78
2021/03/20 11:36:57;;;;;;;6.30;1.70;;;;;;;5.84;39.53;99170.31;4995799;28;20232;-78
2021/03/20 11:39:26;;;;;;;3.17;1.50;;;;;;;6.05;39.24;99163.81;4997780;28;20229;-76
2021/03/20 11:42:01;;;;;;;2.40;1.50;;;;;;;6.38;38.16;99171.25;5000444;28;20229;-78
2021/03/20 11:44:30;;;;;;;3.50;1.60;;;;;;;7.28;39.39;99159.63;4992660;28;20217;-79
2021/03/20 11:46:59;;;;;;;2.13;1.70;;;;;;;6.74;40.17;99143.81;4996054;28;20238;-80
2021/03/20 11:49:31;;;;;;;2.73;1.80;;;;;;;6.00;38.97;99167.91;4993681;28;20208;-71
2021/03/20 11:51:58;;;;;;;3.10;1.93;;;;;;;6.18;40.03;99160.84;4994151;28;20670;-71
2021/03/20 11:54:31;;;;;;;3.07;1.60;;;;;;;6.80;38.79;99163.63;4996787;28;20271;-72
2021/03/20 11:57:02;;;;;;;2.30;1.53;;;;;;;6.79;41.66;99141.56;4994973;28;20275;-72
2021/03/20 11:59:41;;;;;;;9.80;1.73;;;;;;;6.72;38.19;99151.09;4991952;28;20222;-70
2021/03/20 12:02:12;;;;;;;2.57;1.40;;;;;;;5.98;37.51;99160.09;4993871;28;20243;-70
2021/03/20 12:04:39;;;;;;;2.50;1.37;;;;;;;5.30;37.82;99165.63;4995442;28;20203;-71
2021/03/20 12:07:24;;;;;;;3.00;1.90;;;;;;;6.25;38.53;99144.22;4994728;28;20706;-74